Bill's Weather Station Status


Memory

               total        used        free      shared  buff/cache   available
Mem:         3918876      628736      108652        2804     3181488     3027724
Swap:              0           0           0

Uptime

 16:22:20 up 463 days,  4:08,  0 users,  load average: 0.41, 0.34, 0.29


Temperature Database

meteo table size: 880264 rows

Last 50 temperature measurements:
2026-05-09 16:20:05: Inside: 67.5, Outside: 63.7, Pressure: 29.859, Humidity:  51, Illumination: 92.00
2026-05-09 16:15:05: Inside: 67.5, Outside: 63.2, Pressure: 29.859, Humidity:  51, Illumination: 62.00
2026-05-09 16:10:05: Inside: 67.5, Outside: 63.2, Pressure: 29.859, Humidity:  51, Illumination: 61.00
2026-05-09 16:05:05: Inside: 67.4, Outside: 62.8, Pressure: 29.860, Humidity:  51, Illumination: 67.00
2026-05-09 16:00:06: Inside: 67.5, Outside: 62.4, Pressure: 29.860, Humidity:  51, Illumination: 55.00
2026-05-09 15:55:06: Inside: 67.4, Outside: 62.1, Pressure: 29.866, Humidity:  51, Illumination: 64.00
2026-05-09 15:50:06: Inside: 67.4, Outside: 61.6, Pressure: 29.870, Humidity:  51, Illumination: 47.00
2026-05-09 15:45:06: Inside: 67.4, Outside: 62.3, Pressure: 29.870, Humidity:  51, Illumination: 47.00
2026-05-09 15:40:05: Inside: 67.4, Outside: 62.4, Pressure: 29.866, Humidity:  50, Illumination: 56.00
2026-05-09 15:35:06: Inside: 67.5, Outside: 62.8, Pressure: 29.873, Humidity:  51, Illumination: 39.00
2026-05-09 15:30:06: Inside: 67.5, Outside: 63.0, Pressure: 29.872, Humidity:  50, Illumination: 72.00
2026-05-09 15:25:06: Inside: 67.5, Outside: 63.3, Pressure: 29.872, Humidity:  50, Illumination: 79.00
2026-05-09 15:20:06: Inside: 67.5, Outside: 64.3, Pressure: 29.870, Humidity:  50, Illumination: 102.00
2026-05-09 15:15:06: Inside: 67.4, Outside: 64.4, Pressure: 29.868, Humidity:  49, Illumination: 116.00
2026-05-09 15:10:05: Inside: 67.4, Outside: 63.7, Pressure: 29.863, Humidity:  49, Illumination: 121.00
2026-05-09 15:05:05: Inside: 67.4, Outside: 62.7, Pressure: 29.861, Humidity:  49, Illumination: 111.00
2026-05-09 15:00:06: Inside: 67.3, Outside: 62.0, Pressure: 29.872, Humidity:  49, Illumination: 54.00
2026-05-09 14:55:06: Inside: 67.3, Outside: 63.0, Pressure: 29.878, Humidity:  49, Illumination: 65.00
2026-05-09 14:50:05: Inside: 67.3, Outside: 63.7, Pressure: 29.874, Humidity:  49, Illumination: 81.00
2026-05-09 14:45:05: Inside: 67.4, Outside: 65.0, Pressure: 29.872, Humidity:  49, Illumination: 101.00
2026-05-09 14:40:05: Inside: 67.3, Outside: 64.7, Pressure: 29.869, Humidity:  49, Illumination: 113.00
2026-05-09 14:35:05: Inside: 67.2, Outside: 63.6, Pressure: 29.870, Humidity:  49, Illumination: 121.00
2026-05-09 14:30:05: Inside: 67.2, Outside: 62.3, Pressure: 29.879, Humidity:  49, Illumination: 118.00
2026-05-09 14:25:06: Inside: 67.2, Outside: 61.6, Pressure: 29.889, Humidity:  49, Illumination: 29.00
2026-05-09 14:20:06: Inside: 67.2, Outside: 62.4, Pressure: 29.888, Humidity:  49, Illumination: 45.00
2026-05-09 14:15:06: Inside: 67.3, Outside: 63.0, Pressure: 29.880, Humidity:  49, Illumination: 75.00
2026-05-09 14:10:06: Inside: 67.2, Outside: 63.3, Pressure: 29.879, Humidity:  49, Illumination: 81.00
2026-05-09 14:05:05: Inside: 67.2, Outside: 63.4, Pressure: 29.876, Humidity:  49, Illumination: 74.00
2026-05-09 14:00:05: Inside: 67.2, Outside: 63.8, Pressure: 29.872, Humidity:  49, Illumination: 59.00
2026-05-09 13:55:05: Inside: 67.1, Outside: 64.8, Pressure: 29.870, Humidity:  49, Illumination: 74.00
2026-05-09 13:50:05: Inside: 67.2, Outside: 64.7, Pressure: 29.867, Humidity:  49, Illumination: 81.00
2026-05-09 13:45:05: Inside: 67.1, Outside: 64.1, Pressure: 29.864, Humidity:  49, Illumination: 112.00
2026-05-09 13:40:05: Inside: 67.0, Outside: 64.0, Pressure: 29.867, Humidity:  49, Illumination: 63.00
2026-05-09 13:35:06: Inside: 67.1, Outside: 64.5, Pressure: 29.875, Humidity:  49, Illumination: 39.00
2026-05-09 13:30:06: Inside: 67.1, Outside: 64.4, Pressure: 29.871, Humidity:  49, Illumination: 57.00
2026-05-09 13:25:06: Inside: 67.0, Outside: 64.0, Pressure: 29.870, Humidity:  49, Illumination: 53.00
2026-05-09 13:20:05: Inside: 67.0, Outside: 63.5, Pressure: 29.861, Humidity:  49, Illumination: 41.00
2026-05-09 13:15:05: Inside: 67.0, Outside: 63.4, Pressure: 29.856, Humidity:  49, Illumination: 52.00
2026-05-09 13:10:05: Inside: 67.0, Outside: 64.1, Pressure: 29.864, Humidity:  49, Illumination: 47.00
2026-05-09 13:05:05: Inside: 67.1, Outside: 65.9, Pressure: 29.871, Humidity:  49, Illumination: 38.00
2026-05-09 13:00:05: Inside: 67.0, Outside: 67.1, Pressure: 29.864, Humidity:  49, Illumination: 42.00
2026-05-09 12:55:05: Inside: 67.1, Outside: 66.9, Pressure: 29.863, Humidity:  49, Illumination: 47.00
2026-05-09 12:50:05: Inside: 67.0, Outside: 67.0, Pressure: 29.861, Humidity:  49, Illumination: 54.00
2026-05-09 12:45:05: Inside: 67.0, Outside: 66.9, Pressure: 29.862, Humidity:  49, Illumination: 39.00
2026-05-09 12:40:05: Inside: 67.1, Outside: 66.9, Pressure: 29.861, Humidity:  49, Illumination: 58.00
2026-05-09 12:35:05: Inside: 67.1, Outside: 67.2, Pressure: 29.863, Humidity:  49, Illumination: 41.00
2026-05-09 12:30:05: Inside: 67.1, Outside: 68.3, Pressure: 29.864, Humidity:  49, Illumination: 29.00
2026-05-09 12:25:05: Inside: 67.1, Outside: 71.2, Pressure: 29.866, Humidity:  49, Illumination: 53.00
2026-05-09 12:20:05: Inside: 67.1, Outside: 72.4, Pressure: 29.867, Humidity:  49, Illumination: 101.00
2026-05-09 12:15:05: Inside: 67.1, Outside: 71.8, Pressure: 29.871, Humidity:  49, Illumination: 133.00

Gas Readings Database

gas table size: 254395 rows

Last 50 gas reading changes:
2026-05-09 16:00:01: Reading: 101916
2026-05-09 15:57:45: Reading: 101914,   ΔT:   2 min,   ΔR:  2 cf
2026-05-09 15:55:46: Reading: 101912,   ΔT:   1 min,   ΔR:  2 cf
2026-05-09 15:01:30: Reading: 101910,   ΔT:  54 min,   ΔR:  2 cf
2026-05-09 14:51:00: Reading: 101908,   ΔT:  10 min,   ΔR:  2 cf
2026-05-09 14:50:00: Reading: 101906,   ΔT:   1 min,   ΔR:  2 cf
2026-05-09 14:49:00: Reading: 101904,   ΔT:   1 min,   ΔR:  2 cf
2026-05-09 14:05:15: Reading: 101902,   ΔT:  43 min,   ΔR:  2 cf
2026-05-09 14:03:45: Reading: 101900,   ΔT:   1 min,   ΔR:  2 cf
2026-05-09 13:13:15: Reading: 101898,   ΔT:  50 min,   ΔR:  2 cf
2026-05-09 12:48:46: Reading: 101896,   ΔT:  24 min,   ΔR:  2 cf
2026-05-09 12:48:16: Reading: 101894,   ΔT:   0 min,   ΔR:  2 cf
2026-05-09 11:29:00: Reading: 101892,   ΔT:  79 min,   ΔR:  2 cf
2026-05-09 10:14:01: Reading: 101888,   ΔT:  74 min,   ΔR:  4 cf
2026-05-09 08:55:01: Reading: 101884,   ΔT:  79 min,   ΔR:  4 cf
2026-05-09 07:36:16: Reading: 101880,   ΔT:  78 min,   ΔR:  4 cf
2026-05-09 07:32:16: Reading: 101878,   ΔT:   4 min,   ΔR:  2 cf
2026-05-09 06:59:15: Reading: 101876,   ΔT:  33 min,   ΔR:  2 cf
2026-05-09 06:18:31: Reading: 101874,   ΔT:  40 min,   ΔR:  2 cf
2026-05-09 06:16:30: Reading: 101872,   ΔT:   2 min,   ΔR:  2 cf
2026-05-09 05:01:30: Reading: 101870,   ΔT:  75 min,   ΔR:  2 cf
2026-05-09 04:57:30: Reading: 101868,   ΔT:   4 min,   ΔR:  2 cf
2026-05-09 03:38:16: Reading: 101866,   ΔT:  79 min,   ΔR:  2 cf
2026-05-09 03:36:00: Reading: 101864,   ΔT:   2 min,   ΔR:  2 cf
2026-05-09 02:10:46: Reading: 101862,   ΔT:  85 min,   ΔR:  2 cf
2026-05-09 02:08:31: Reading: 101860,   ΔT:   2 min,   ΔR:  2 cf
2026-05-09 02:00:16: Reading: 101858,   ΔT:   8 min,   ΔR:  2 cf
2026-05-09 00:55:46: Reading: 101856,   ΔT:  64 min,   ΔR:  2 cf
2026-05-09 00:53:16: Reading: 101854,   ΔT:   2 min,   ΔR:  2 cf
2026-05-08 23:36:30: Reading: 101852,   ΔT:  76 min,   ΔR:  2 cf
2026-05-08 23:32:31: Reading: 101850,   ΔT:   3 min,   ΔR:  2 cf
2026-05-08 22:05:01: Reading: 101848,   ΔT:  87 min,   ΔR:  2 cf
2026-05-08 22:02:45: Reading: 101846,   ΔT:   2 min,   ΔR:  2 cf
2026-05-08 22:00:46: Reading: 101844,   ΔT:   1 min,   ΔR:  2 cf
2026-05-08 20:29:02: Reading: 101842,   ΔT:  91 min,   ΔR:  2 cf
2026-05-08 20:25:01: Reading: 101838,   ΔT:   4 min,   ΔR:  4 cf
2026-05-08 18:49:02: Reading: 101836,   ΔT:  95 min,   ΔR:  2 cf
2026-05-08 18:46:02: Reading: 101832,   ΔT:   3 min,   ΔR:  4 cf
2026-05-08 17:00:47: Reading: 101830,   ΔT: 105 min,   ΔR:  2 cf
2026-05-08 16:58:17: Reading: 101828,   ΔT:   2 min,   ΔR:  2 cf
2026-05-08 16:57:16: Reading: 101826,   ΔT:   1 min,   ΔR:  2 cf
2026-05-08 16:56:32: Reading: 101824,   ΔT:   0 min,   ΔR:  2 cf
2026-05-08 16:53:32: Reading: 101818,   ΔT:   3 min,   ΔR:  6 cf
2026-05-08 15:25:02: Reading: 101816,   ΔT:  88 min,   ΔR:  2 cf
2026-05-08 15:22:46: Reading: 101814,   ΔT:   2 min,   ΔR:  2 cf
2026-05-08 15:21:31: Reading: 101812,   ΔT:   1 min,   ΔR:  2 cf
2026-05-08 14:14:01: Reading: 101810,   ΔT:  67 min,   ΔR:  2 cf
2026-05-08 13:11:31: Reading: 101808,   ΔT:  62 min,   ΔR:  2 cf
2026-05-08 13:07:32: Reading: 101804,   ΔT:   3 min,   ΔR:  4 cf
2026-05-08 11:58:32: Reading: 101802,   ΔT:  69 min,   ΔR:  2 cf